sensor_id;sensor_type;location;lat;lon;timestamp;temperature;humidity
59923;DHT22;45778;51.142;3.732;2023-01-24T00:00:07;4.60;99.90
59923;DHT22;45778;51.142;3.732;2023-01-24T00:02:33;4.60;99.90
59923;DHT22;45778;51.142;3.732;2023-01-24T00:04:58;4.70;99.90
59923;DHT22;45778;51.142;3.732;2023-01-24T00:07:24;4.70;99.90
59923;DHT22;45778;51.142;3.732;2023-01-24T00:09:50;4.70;99.90
59923;DHT22;45778;51.142;3.732;2023-01-24T00:12:15;4.70;99.90
59923;DHT22;45778;51.142;3.732;2023-01-24T00:14:41;4.90;99.90
59923;DHT22;45778;51.142;3.732;2023-01-24T00:17:07;4.70;99.90
59923;DHT22;45778;51.142;3.732;2023-01-24T00:19:35;4.70;99.90
59923;DHT22;45778;51.142;3.732;2023-01-24T00:22:03;4.70;99.90
59923;DHT22;45778;51.142;3.732;2023-01-24T00:24:28;4.70;99.90
59923;DHT22;45778;51.142;3.732;2023-01-24T00:26:55;4.70;99.90
59923;DHT22;45778;51.142;3.732;2023-01-24T00:29:21;4.60;99.90
59923;DHT22;45778;51.142;3.732;2023-01-24T00:31:46;4.60;99.90
59923;DHT22;45778;51.142;3.732;2023-01-24T00:34:12;4.70;99.90
59923;DHT22;45778;51.142;3.732;2023-01-24T00:36:38;4.60;99.90
59923;DHT22;45778;51.142;3.732;2023-01-24T00:39:04;4.60;99.90
59923;DHT22;45778;51.142;3.732;2023-01-24T00:41:29;4.60;99.90
59923;DHT22;45778;51.142;3.732;2023-01-24T00:43:55;4.70;99.90
59923;DHT22;45778;51.142;3.732;2023-01-24T00:46:21;4.60;99.90
59923;DHT22;45778;51.142;3.732;2023-01-24T00:48:46;4.70;99.90
59923;DHT22;45778;51.142;3.732;2023-01-24T00:51:12;4.60;99.90
59923;DHT22;45778;51.142;3.732;2023-01-24T00:53:38;4.60;99.90
59923;DHT22;45778;51.142;3.732;2023-01-24T00:56:04;4.70;99.90
59923;DHT22;45778;51.142;3.732;2023-01-24T00:58:32;4.60;99.90
59923;DHT22;45778;51.142;3.732;2023-01-24T01:00:58;4.60;99.90
59923;DHT22;45778;51.142;3.732;2023-01-24T01:03:26;4.60;99.90
59923;DHT22;45778;51.142;3.732;2023-01-24T01:06:00;4.60;99.90
59923;DHT22;45778;51.142;3.732;2023-01-24T01:08:26;4.60;99.90
59923;DHT22;45778;51.142;3.732;2023-01-24T01:10:52;4.60;99.90
59923;DHT22;45778;51.142;3.732;2023-01-24T01:13:18;4.50;99.90
59923;DHT22;45778;51.142;3.732;2023-01-24T01:15:43;4.40;99.90
59923;DHT22;45778;51.142;3.732;2023-01-24T01:18:09;4.40;99.90
59923;DHT22;45778;51.142;3.732;2023-01-24T01:20:35;4.50;99.90
59923;DHT22;45778;51.142;3.732;2023-01-24T01:23:01;4.40;99.90
59923;DHT22;45778;51.142;3.732;2023-01-24T01:25:26;4.40;99.90
59923;DHT22;45778;51.142;3.732;2023-01-24T01:27:52;4.40;99.90
59923;DHT22;45778;51.142;3.732;2023-01-24T01:30:18;4.50;99.90
59923;DHT22;45778;51.142;3.732;2023-01-24T01:32:44;4.50;99.90
59923;DHT22;45778;51.142;3.732;2023-01-24T01:35:09;4.50;99.90
59923;DHT22;45778;51.142;3.732;2023-01-24T01:37:35;4.40;99.90
59923;DHT22;45778;51.142;3.732;2023-01-24T01:40:01;4.40;99.90
59923;DHT22;45778;51.142;3.732;2023-01-24T01:48:39;4.50;99.90
59923;DHT22;45778;51.142;3.732;2023-01-24T01:54:10;4.40;99.90
59923;DHT22;45778;51.142;3.732;2023-01-24T01:59:10;4.40;99.90
59923;DHT22;45778;51.142;3.732;2023-01-24T02:01:37;4.40;99.90
59923;DHT22;45778;51.142;3.732;2023-01-24T02:04:11;4.40;99.90
59923;DHT22;45778;51.142;3.732;2023-01-24T02:06:55;4.40;99.90
59923;DHT22;45778;51.142;3.732;2023-01-24T02:09:32;4.60;99.90
59923;DHT22;45778;51.142;3.732;2023-01-24T02:12:01;4.60;99.90
59923;DHT22;45778;51.142;3.732;2023-01-24T02:14:29;4.40;99.90
59923;DHT22;45778;51.142;3.732;2023-01-24T02:17:19;4.30;99.90
59923;DHT22;45778;51.142;3.732;2023-01-24T02:22:48;4.30;99.90
59923;DHT22;45778;51.142;3.732;2023-01-24T02:27:55;4.30;99.90
59923;DHT22;45778;51.142;3.732;2023-01-24T02:30:21;4.30;99.90
59923;DHT22;45778;51.142;3.732;2023-01-24T02:32:47;4.40;99.90
59923;DHT22;45778;51.142;3.732;2023-01-24T02:35:30;4.30;99.90
59923;DHT22;45778;51.142;3.732;2023-01-24T02:37:57;4.30;99.90
59923;DHT22;45778;51.142;3.732;2023-01-24T02:40:27;4.30;99.90
59923;DHT22;45778;51.142;3.732;2023-01-24T02:42:56;4.30;99.90
59923;DHT22;45778;51.142;3.732;2023-01-24T02:45:26;4.20;99.90
59923;DHT22;45778;51.142;3.732;2023-01-24T02:47:53;4.20;99.90
59923;DHT22;45778;51.142;3.732;2023-01-24T02:50:21;4.10;99.90
59923;DHT22;45778;51.142;3.732;2023-01-24T02:52:48;4.20;99.90
59923;DHT22;45778;51.142;3.732;2023-01-24T02:55:33;4.20;99.90
59923;DHT22;45778;51.142;3.732;2023-01-24T02:57:59;4.20;99.90
59923;DHT22;45778;51.142;3.732;2023-01-24T03:00:41;4.10;99.90
59923;DHT22;45778;51.142;3.732;2023-01-24T03:03:09;4.10;99.90
59923;DHT22;45778;51.142;3.732;2023-01-24T03:05:35;4.00;99.90
59923;DHT22;45778;51.142;3.732;2023-01-24T03:08:32;4.10;99.90
59923;DHT22;45778;51.142;3.732;2023-01-24T03:10:58;4.00;99.90
59923;DHT22;45778;51.142;3.732;2023-01-24T03:13:24;4.20;99.90
59923;DHT22;45778;51.142;3.732;2023-01-24T03:16:09;4.20;99.90
59923;DHT22;45778;51.142;3.732;2023-01-24T03:18:53;4.20;99.90
59923;DHT22;45778;51.142;3.732;2023-01-24T03:21:38;4.40;99.90
59923;DHT22;45778;51.142;3.732;2023-01-24T03:24:23;4.30;99.90
59923;DHT22;45778;51.142;3.732;2023-01-24T03:27:07;4.20;99.90
59923;DHT22;45778;51.142;3.732;2023-01-24T03:29:52;4.20;99.90
59923;DHT22;45778;51.142;3.732;2023-01-24T03:32:36;4.20;99.90
59923;DHT22;45778;51.142;3.732;2023-01-24T03:35:21;4.30;99.90
59923;DHT22;45778;51.142;3.732;2023-01-24T03:37:47;4.30;99.90
59923;DHT22;45778;51.142;3.732;2023-01-24T03:40:31;4.30;99.90
59923;DHT22;45778;51.142;3.732;2023-01-24T03:42:58;4.30;99.90
59923;DHT22;45778;51.142;3.732;2023-01-24T03:45:32;4.40;99.90
59923;DHT22;45778;51.142;3.732;2023-01-24T03:48:01;4.50;99.90
59923;DHT22;45778;51.142;3.732;2023-01-24T03:50:28;4.40;99.90
59923;DHT22;45778;51.142;3.732;2023-01-24T03:53:13;4.20;99.90
59923;DHT22;45778;51.142;3.732;2023-01-24T03:55:39;4.00;99.90
59923;DHT22;45778;51.142;3.732;2023-01-24T03:58:07;4.10;99.90
59923;DHT22;45778;51.142;3.732;2023-01-24T04:00:34;4.20;99.90
59923;DHT22;45778;51.142;3.732;2023-01-24T04:03:00;4.30;99.90
59923;DHT22;45778;51.142;3.732;2023-01-24T04:05:26;4.20;99.90
59923;DHT22;45778;51.142;3.732;2023-01-24T04:07:55;4.10;99.90
59923;DHT22;45778;51.142;3.732;2023-01-24T04:10:22;4.10;99.90
59923;DHT22;45778;51.142;3.732;2023-01-24T04:12:48;4.20;99.90
59923;DHT22;45778;51.142;3.732;2023-01-24T04:15:17;4.30;99.90
59923;DHT22;45778;51.142;3.732;2023-01-24T04:17:43;4.30;99.90
59923;DHT22;45778;51.142;3.732;2023-01-24T04:20:09;4.40;99.90
59923;DHT22;45778;51.142;3.732;2023-01-24T04:22:35;4.30;99.90
59923;DHT22;45778;51.142;3.732;2023-01-24T04:25:01;4.30;99.90
59923;DHT22;45778;51.142;3.732;2023-01-24T04:27:26;4.20;99.90
59923;DHT22;45778;51.142;3.732;2023-01-24T04:29:52;4.20;99.90
59923;DHT22;45778;51.142;3.732;2023-01-24T04:32:18;4.20;99.90
59923;DHT22;45778;51.142;3.732;2023-01-24T04:34:43;4.20;99.90
59923;DHT22;45778;51.142;3.732;2023-01-24T04:37:09;4.20;99.90
59923;DHT22;45778;51.142;3.732;2023-01-24T04:39:35;4.20;99.90
59923;DHT22;45778;51.142;3.732;2023-01-24T04:42:01;4.30;99.90
59923;DHT22;45778;51.142;3.732;2023-01-24T04:44:26;4.30;99.90
59923;DHT22;45778;51.142;3.732;2023-01-24T04:46:52;4.20;99.90
59923;DHT22;45778;51.142;3.732;2023-01-24T04:49:18;4.20;99.90
59923;DHT22;45778;51.142;3.732;2023-01-24T04:51:46;4.20;99.90
59923;DHT22;45778;51.142;3.732;2023-01-24T04:54:12;4.20;99.90
59923;DHT22;45778;51.142;3.732;2023-01-24T04:56:38;4.30;99.90
59923;DHT22;45778;51.142;3.732;2023-01-24T04:59:04;4.20;99.90
59923;DHT22;45778;51.142;3.732;2023-01-24T05:01:30;4.00;99.90
59923;DHT22;45778;51.142;3.732;2023-01-24T05:03:56;4.10;99.90
59923;DHT22;45778;51.142;3.732;2023-01-24T05:06:28;4.00;99.90
59923;DHT22;45778;51.142;3.732;2023-01-24T05:08:55;4.10;99.90
59923;DHT22;45778;51.142;3.732;2023-01-24T05:11:22;4.10;99.90
59923;DHT22;45778;51.142;3.732;2023-01-24T05:13:48;4.10;99.90
59923;DHT22;45778;51.142;3.732;2023-01-24T05:16:14;4.30;99.90
59923;DHT22;45778;51.142;3.732;2023-01-24T05:18:40;4.20;99.90
59923;DHT22;45778;51.142;3.732;2023-01-24T05:21:07;4.10;99.90
59923;DHT22;45778;51.142;3.732;2023-01-24T05:23:33;4.20;99.90
59923;DHT22;45778;51.142;3.732;2023-01-24T05:26:00;4.20;99.90
59923;DHT22;45778;51.142;3.732;2023-01-24T05:28:26;4.10;99.90
59923;DHT22;45778;51.142;3.732;2023-01-24T05:30:52;4.10;99.90
59923;DHT22;45778;51.142;3.732;2023-01-24T05:33:18;4.10;99.90
59923;DHT22;45778;51.142;3.732;2023-01-24T05:35:43;4.20;99.90
59923;DHT22;45778;51.142;3.732;2023-01-24T05:38:10;4.20;99.90
59923;DHT22;45778;51.142;3.732;2023-01-24T05:40:36;4.30;99.90
59923;DHT22;45778;51.142;3.732;2023-01-24T05:43:02;4.10;99.90
59923;DHT22;45778;51.142;3.732;2023-01-24T05:45:28;4.10;99.90
59923;DHT22;45778;51.142;3.732;2023-01-24T05:47:55;4.00;99.90
59923;DHT22;45778;51.142;3.732;2023-01-24T05:50:20;4.20;99.90
59923;DHT22;45778;51.142;3.732;2023-01-24T05:52:46;4.20;99.90
59923;DHT22;45778;51.142;3.732;2023-01-24T05:55:12;4.10;99.90
59923;DHT22;45778;51.142;3.732;2023-01-24T05:57:37;4.00;99.90
59923;DHT22;45778;51.142;3.732;2023-01-24T06:00:04;4.20;99.90
59923;DHT22;45778;51.142;3.732;2023-01-24T06:02:30;4.00;99.90
59923;DHT22;45778;51.142;3.732;2023-01-24T06:04:55;4.10;99.90
59923;DHT22;45778;51.142;3.732;2023-01-24T06:07:21;4.00;99.90
59923;DHT22;45778;51.142;3.732;2023-01-24T06:09:47;3.90;99.90
59923;DHT22;45778;51.142;3.732;2023-01-24T06:12:13;3.90;99.90
59923;DHT22;45778;51.142;3.732;2023-01-24T06:14:38;3.80;99.90
59923;DHT22;45778;51.142;3.732;2023-01-24T06:17:04;4.00;99.90
59923;DHT22;45778;51.142;3.732;2023-01-24T06:19:30;4.10;99.90
59923;DHT22;45778;51.142;3.732;2023-01-24T06:22:28;4.00;99.90
59923;DHT22;45778;51.142;3.732;2023-01-24T06:24:55;4.10;99.90
59923;DHT22;45778;51.142;3.732;2023-01-24T06:27:21;4.00;99.90
59923;DHT22;45778;51.142;3.732;2023-01-24T06:29:47;4.00;99.90
59923;DHT22;45778;51.142;3.732;2023-01-24T06:32:45;4.00;99.90
59923;DHT22;45778;51.142;3.732;2023-01-24T06:35:47;4.00;99.90
59923;DHT22;45778;51.142;3.732;2023-01-24T06:38:28;3.90;99.90
59923;DHT22;45778;51.142;3.732;2023-01-24T06:40:56;3.90;99.90
59923;DHT22;45778;51.142;3.732;2023-01-24T06:43:23;3.90;99.90
59923;DHT22;45778;51.142;3.732;2023-01-24T06:45:49;4.00;99.90
59923;DHT22;45778;51.142;3.732;2023-01-24T06:48:15;4.00;99.90
59923;DHT22;45778;51.142;3.732;2023-01-24T06:50:41;4.00;99.90
59923;DHT22;45778;51.142;3.732;2023-01-24T06:53:07;4.00;99.90
59923;DHT22;45778;51.142;3.732;2023-01-24T06:55:35;4.00;99.90
59923;DHT22;45778;51.142;3.732;2023-01-24T06:58:03;4.00;99.90
59923;DHT22;45778;51.142;3.732;2023-01-24T07:00:29;4.10;99.90
59923;DHT22;45778;51.142;3.732;2023-01-24T07:03:04;4.00;99.90
59923;DHT22;45778;51.142;3.732;2023-01-24T07:05:34;4.00;99.90
59923;DHT22;45778;51.142;3.732;2023-01-24T07:08:01;4.10;99.90
59923;DHT22;45778;51.142;3.732;2023-01-24T07:10:27;4.00;99.90
59923;DHT22;45778;51.142;3.732;2023-01-24T07:12:54;3.90;99.90
59923;DHT22;45778;51.142;3.732;2023-01-24T07:15:20;3.90;99.90
59923;DHT22;45778;51.142;3.732;2023-01-24T07:17:46;3.90;99.90
59923;DHT22;45778;51.142;3.732;2023-01-24T07:20:12;3.90;99.90
59923;DHT22;45778;51.142;3.732;2023-01-24T07:22:39;4.00;99.90
59923;DHT22;45778;51.142;3.732;2023-01-24T07:25:14;4.00;99.90
59923;DHT22;45778;51.142;3.732;2023-01-24T07:27:44;3.90;99.90
59923;DHT22;45778;51.142;3.732;2023-01-24T07:30:11;4.00;99.90
59923;DHT22;45778;51.142;3.732;2023-01-24T07:32:37;4.10;99.90
59923;DHT22;45778;51.142;3.732;2023-01-24T07:35:06;4.00;99.90
59923;DHT22;45778;51.142;3.732;2023-01-24T07:37:32;4.00;99.90
59923;DHT22;45778;51.142;3.732;2023-01-24T07:39:58;4.00;99.90
59923;DHT22;45778;51.142;3.732;2023-01-24T07:42:24;3.90;99.90
59923;DHT22;45778;51.142;3.732;2023-01-24T07:44:49;3.90;99.90
59923;DHT22;45778;51.142;3.732;2023-01-24T07:47:15;3.80;99.90
59923;DHT22;45778;51.142;3.732;2023-01-24T07:49:41;3.90;99.90
59923;DHT22;45778;51.142;3.732;2023-01-24T07:52:07;3.90;99.90
59923;DHT22;45778;51.142;3.732;2023-01-24T07:54:33;3.90;99.90
59923;DHT22;45778;51.142;3.732;2023-01-24T07:56:59;3.70;99.90
59923;DHT22;45778;51.142;3.732;2023-01-24T07:59:26;3.70;99.90
59923;DHT22;45778;51.142;3.732;2023-01-24T08:01:51;3.80;99.90
59923;DHT22;45778;51.142;3.732;2023-01-24T08:04:17;3.80;99.90
59923;DHT22;45778;51.142;3.732;2023-01-24T08:06:43;3.90;99.90
59923;DHT22;45778;51.142;3.732;2023-01-24T08:09:29;3.90;99.90
59923;DHT22;45778;51.142;3.732;2023-01-24T08:11:55;3.90;99.90
59923;DHT22;45778;51.142;3.732;2023-01-24T08:14:22;4.10;99.90
59923;DHT22;45778;51.142;3.732;2023-01-24T08:16:48;4.10;99.90
59923;DHT22;45778;51.142;3.732;2023-01-24T08:19:14;4.10;99.90
59923;DHT22;45778;51.142;3.732;2023-01-24T08:21:40;4.20;99.90
59923;DHT22;45778;51.142;3.732;2023-01-24T08:24:06;4.10;99.90
59923;DHT22;45778;51.142;3.732;2023-01-24T08:26:32;4.20;99.90
59923;DHT22;45778;51.142;3.732;2023-01-24T08:28:58;4.10;99.90
59923;DHT22;45778;51.142;3.732;2023-01-24T08:31:24;4.10;99.90
59923;DHT22;45778;51.142;3.732;2023-01-24T08:33:49;4.20;99.90
59923;DHT22;45778;51.142;3.732;2023-01-24T08:36:17;4.30;99.90
59923;DHT22;45778;51.142;3.732;2023-01-24T08:38:44;4.30;99.90
59923;DHT22;45778;51.142;3.732;2023-01-24T08:41:10;4.40;99.90
59923;DHT22;45778;51.142;3.732;2023-01-24T08:43:36;4.30;99.90
59923;DHT22;45778;51.142;3.732;2023-01-24T08:46:02;4.40;99.90
59923;DHT22;45778;51.142;3.732;2023-01-24T08:48:29;4.20;99.90
59923;DHT22;45778;51.142;3.732;2023-01-24T08:50:55;4.40;99.90
59923;DHT22;45778;51.142;3.732;2023-01-24T08:53:20;4.50;99.90
59923;DHT22;45778;51.142;3.732;2023-01-24T08:55:49;4.60;99.90
59923;DHT22;45778;51.142;3.732;2023-01-24T08:58:15;4.40;99.90
59923;DHT22;45778;51.142;3.732;2023-01-24T09:00:41;4.40;99.90
59923;DHT22;45778;51.142;3.732;2023-01-24T09:03:09;4.40;99.90
59923;DHT22;45778;51.142;3.732;2023-01-24T09:05:36;4.50;99.90
59923;DHT22;45778;51.142;3.732;2023-01-24T09:08:04;4.40;99.90
59923;DHT22;45778;51.142;3.732;2023-01-24T09:10:30;4.30;99.90
59923;DHT22;45778;51.142;3.732;2023-01-24T09:12:56;4.40;99.90
59923;DHT22;45778;51.142;3.732;2023-01-24T09:15:22;4.50;99.90
59923;DHT22;45778;51.142;3.732;2023-01-24T09:17:48;4.50;99.90
59923;DHT22;45778;51.142;3.732;2023-01-24T09:20:14;4.60;99.90
59923;DHT22;45778;51.142;3.732;2023-01-24T09:22:39;4.50;99.90
59923;DHT22;45778;51.142;3.732;2023-01-24T09:25:06;4.40;99.90
59923;DHT22;45778;51.142;3.732;2023-01-24T09:27:34;4.30;99.90
59923;DHT22;45778;51.142;3.732;2023-01-24T09:29:59;4.40;99.90
59923;DHT22;45778;51.142;3.732;2023-01-24T09:32:25;4.40;99.90
59923;DHT22;45778;51.142;3.732;2023-01-24T09:34:51;4.40;99.90
59923;DHT22;45778;51.142;3.732;2023-01-24T09:37:20;4.50;99.90
59923;DHT22;45778;51.142;3.732;2023-01-24T09:39:46;4.50;99.90
59923;DHT22;45778;51.142;3.732;2023-01-24T09:45:11;4.50;99.90
59923;DHT22;45778;51.142;3.732;2023-01-24T09:47:57;4.70;99.90
59923;DHT22;45778;51.142;3.732;2023-01-24T09:50:52;4.70;99.90
59923;DHT22;45778;51.142;3.732;2023-01-24T09:53:24;4.80;99.90
59923;DHT22;45778;51.142;3.732;2023-01-24T09:55:51;4.80;99.90
59923;DHT22;45778;51.142;3.732;2023-01-24T09:58:43;4.90;99.90
59923;DHT22;45778;51.142;3.732;2023-01-24T10:01:12;4.90;99.90
59923;DHT22;45778;51.142;3.732;2023-01-24T10:03:39;5.00;99.90
59923;DHT22;45778;51.142;3.732;2023-01-24T10:06:26;5.00;99.90
59923;DHT22;45778;51.142;3.732;2023-01-24T10:14:10;4.90;99.90
59923;DHT22;45778;51.142;3.732;2023-01-24T10:24:48;4.90;99.90
59923;DHT22;45778;51.142;3.732;2023-01-24T10:27:42;4.80;99.90
59923;DHT22;45778;51.142;3.732;2023-01-24T10:30:30;5.00;99.90
59923;DHT22;45778;51.142;3.732;2023-01-24T10:33:03;5.00;99.90
59923;DHT22;45778;51.142;3.732;2023-01-24T10:35:38;5.10;99.90
59923;DHT22;45778;51.142;3.732;2023-01-24T10:38:09;5.10;99.90
59923;DHT22;45778;51.142;3.732;2023-01-24T10:40:52;5.20;99.90
59923;DHT22;45778;51.142;3.732;2023-01-24T10:43:23;5.10;99.90
59923;DHT22;45778;51.142;3.732;2023-01-24T10:46:04;5.10;99.90
59923;DHT22;45778;51.142;3.732;2023-01-24T10:51:19;5.30;99.90
59923;DHT22;45778;51.142;3.732;2023-01-24T10:53:45;5.20;99.90
59923;DHT22;45778;51.142;3.732;2023-01-24T10:56:14;5.10;99.90
59923;DHT22;45778;51.142;3.732;2023-01-24T10:58:55;5.20;99.90
59923;DHT22;45778;51.142;3.732;2023-01-24T11:01:25;5.10;99.90
59923;DHT22;45778;51.142;3.732;2023-01-24T11:03:56;5.30;99.90
59923;DHT22;45778;51.142;3.732;2023-01-24T11:06:33;5.20;99.90
59923;DHT22;45778;51.142;3.732;2023-01-24T11:09:12;5.20;99.90
59923;DHT22;45778;51.142;3.732;2023-01-24T11:11:55;5.30;99.90
59923;DHT22;45778;51.142;3.732;2023-01-24T11:14:24;5.40;99.90
59923;DHT22;45778;51.142;3.732;2023-01-24T11:16:54;5.30;99.90
59923;DHT22;45778;51.142;3.732;2023-01-24T11:19:31;5.20;99.90
59923;DHT22;45778;51.142;3.732;2023-01-24T11:22:00;5.40;99.90
59923;DHT22;45778;51.142;3.732;2023-01-24T11:24:27;5.40;99.90
59923;DHT22;45778;51.142;3.732;2023-01-24T11:26:55;5.40;99.90
59923;DHT22;45778;51.142;3.732;2023-01-24T11:29:21;5.30;99.90
59923;DHT22;45778;51.142;3.732;2023-01-24T11:32:21;5.40;99.90
59923;DHT22;45778;51.142;3.732;2023-01-24T11:35:18;5.50;99.90
59923;DHT22;45778;51.142;3.732;2023-01-24T11:57:11;5.30;99.90
59923;DHT22;45778;51.142;3.732;2023-01-24T12:00:00;5.30;99.90
59923;DHT22;45778;51.142;3.732;2023-01-24T12:05:51;5.50;99.90
59923;DHT22;45778;51.142;3.732;2023-01-24T12:11:30;5.20;99.90
59923;DHT22;45778;51.142;3.732;2023-01-24T12:14:06;5.30;99.90
59923;DHT22;45778;51.142;3.732;2023-01-24T12:19:28;5.40;99.90
59923;DHT22;45778;51.142;3.732;2023-01-24T12:21:59;5.40;99.90
59923;DHT22;45778;51.142;3.732;2023-01-24T12:24:31;5.50;99.90
59923;DHT22;45778;51.142;3.732;2023-01-24T12:27:04;5.50;99.90
59923;DHT22;45778;51.142;3.732;2023-01-24T12:29:40;5.40;99.90
59923;DHT22;45778;51.142;3.732;2023-01-24T12:32:23;5.20;99.90
59923;DHT22;45778;51.142;3.732;2023-01-24T12:35:11;5.20;99.90
59923;DHT22;45778;51.142;3.732;2023-01-24T12:38:02;5.30;99.90
59923;DHT22;45778;51.142;3.732;2023-01-24T12:40:58;5.30;99.90
59923;DHT22;45778;51.142;3.732;2023-01-24T12:43:35;5.30;99.90
59923;DHT22;45778;51.142;3.732;2023-01-24T12:46:19;5.30;99.90
59923;DHT22;45778;51.142;3.732;2023-01-24T12:51:30;5.30;99.90
59923;DHT22;45778;51.142;3.732;2023-01-24T12:54:02;5.30;99.90
59923;DHT22;45778;51.142;3.732;2023-01-24T12:56:49;5.10;99.90
59923;DHT22;45778;51.142;3.732;2023-01-24T12:59:23;5.20;99.90
59923;DHT22;45778;51.142;3.732;2023-01-24T13:05:09;5.20;99.90
59923;DHT22;45778;51.142;3.732;2023-01-24T13:08:05;5.20;99.90
59923;DHT22;45778;51.142;3.732;2023-01-24T13:11:11;5.20;99.90
59923;DHT22;45778;51.142;3.732;2023-01-24T13:13:47;5.30;99.90
59923;DHT22;45778;51.142;3.732;2023-01-24T13:30:13;5.40;99.90
59923;DHT22;45778;51.142;3.732;2023-01-24T13:32:42;5.20;99.90
59923;DHT22;45778;51.142;3.732;2023-01-24T13:35:21;5.30;99.90
59923;DHT22;45778;51.142;3.732;2023-01-24T13:38:03;5.20;99.90
59923;DHT22;45778;51.142;3.732;2023-01-24T13:40:30;5.30;99.90
59923;DHT22;45778;51.142;3.732;2023-01-24T13:43:04;5.10;99.90
59923;DHT22;45778;51.142;3.732;2023-01-24T13:45:50;5.00;99.90
59923;DHT22;45778;51.142;3.732;2023-01-24T13:56:22;5.20;99.90
59923;DHT22;45778;51.142;3.732;2023-01-24T13:58:51;5.20;99.90
59923;DHT22;45778;51.142;3.732;2023-01-24T14:01:17;5.20;99.90
59923;DHT22;45778;51.142;3.732;2023-01-24T14:03:56;5.20;99.90
59923;DHT22;45778;51.142;3.732;2023-01-24T14:06:23;5.30;99.90
59923;DHT22;45778;51.142;3.732;2023-01-24T14:09:00;5.20;99.90
59923;DHT22;45778;51.142;3.732;2023-01-24T14:11:34;5.20;99.90
59923;DHT22;45778;51.142;3.732;2023-01-24T14:14:24;5.20;99.90
59923;DHT22;45778;51.142;3.732;2023-01-24T14:19:21;5.00;99.90
59923;DHT22;45778;51.142;3.732;2023-01-24T14:35:23;4.70;99.90
59923;DHT22;45778;51.142;3.732;2023-01-24T14:37:51;4.60;99.90
59923;DHT22;45778;51.142;3.732;2023-01-24T14:40:24;4.50;99.90
59923;DHT22;45778;51.142;3.732;2023-01-24T14:42:57;4.50;99.90
59923;DHT22;45778;51.142;3.732;2023-01-24T14:45:27;4.60;99.90
59923;DHT22;45778;51.142;3.732;2023-01-24T14:47:53;4.70;99.90
59923;DHT22;45778;51.142;3.732;2023-01-24T14:50:29;4.70;99.90
59923;DHT22;45778;51.142;3.732;2023-01-24T14:53:02;4.40;99.90
59923;DHT22;45778;51.142;3.732;2023-01-24T14:55:38;4.50;99.90
59923;DHT22;45778;51.142;3.732;2023-01-24T14:58:36;4.60;99.90
59923;DHT22;45778;51.142;3.732;2023-01-24T15:01:02;4.80;99.90
59923;DHT22;45778;51.142;3.732;2023-01-24T15:03:30;4.70;99.90
59923;DHT22;45778;51.142;3.732;2023-01-24T15:06:05;4.70;99.90
59923;DHT22;45778;51.142;3.732;2023-01-24T15:08:32;4.70;99.90
59923;DHT22;45778;51.142;3.732;2023-01-24T15:11:07;4.70;99.90
59923;DHT22;45778;51.142;3.732;2023-01-24T15:13:44;4.50;99.90
59923;DHT22;45778;51.142;3.732;2023-01-24T15:16:22;4.60;99.90
59923;DHT22;45778;51.142;3.732;2023-01-24T15:19:23;4.70;99.90
59923;DHT22;45778;51.142;3.732;2023-01-24T15:21:50;4.70;99.90
59923;DHT22;45778;51.142;3.732;2023-01-24T15:24:24;4.80;99.90
59923;DHT22;45778;51.142;3.732;2023-01-24T15:26:50;4.70;99.90
59923;DHT22;45778;51.142;3.732;2023-01-24T15:29:42;4.70;99.90
59923;DHT22;45778;51.142;3.732;2023-01-24T15:32:41;4.50;99.90
59923;DHT22;45778;51.142;3.732;2023-01-24T15:49:33;4.20;99.90
59923;DHT22;45778;51.142;3.732;2023-01-24T15:54:54;4.40;99.90
59923;DHT22;45778;51.142;3.732;2023-01-24T15:59:55;4.40;99.90
59923;DHT22;45778;51.142;3.732;2023-01-24T16:02:21;4.30;99.90
59923;DHT22;45778;51.142;3.732;2023-01-24T16:04:47;4.30;99.90
59923;DHT22;45778;51.142;3.732;2023-01-24T16:07:14;4.10;99.90
59923;DHT22;45778;51.142;3.732;2023-01-24T16:09:40;4.10;99.90
59923;DHT22;45778;51.142;3.732;2023-01-24T16:12:10;4.10;99.90
59923;DHT22;45778;51.142;3.732;2023-01-24T16:14:39;4.20;99.90
59923;DHT22;45778;51.142;3.732;2023-01-24T16:17:06;4.10;99.90
59923;DHT22;45778;51.142;3.732;2023-01-24T16:19:32;4.20;99.90
59923;DHT22;45778;51.142;3.732;2023-01-24T16:21:57;4.10;99.90
59923;DHT22;45778;51.142;3.732;2023-01-24T16:24:23;4.10;99.90
59923;DHT22;45778;51.142;3.732;2023-01-24T16:26:51;4.10;99.90
59923;DHT22;45778;51.142;3.732;2023-01-24T16:29:23;4.20;99.90
59923;DHT22;45778;51.142;3.732;2023-01-24T16:31:50;4.20;99.90
59923;DHT22;45778;51.142;3.732;2023-01-24T16:34:16;4.10;99.90
59923;DHT22;45778;51.142;3.732;2023-01-24T16:36:43;4.10;99.90
59923;DHT22;45778;51.142;3.732;2023-01-24T16:39:17;4.20;99.90
59923;DHT22;45778;51.142;3.732;2023-01-24T16:41:43;4.10;99.90
59923;DHT22;45778;51.142;3.732;2023-01-24T16:44:09;3.90;99.90
59923;DHT22;45778;51.142;3.732;2023-01-24T16:46:35;3.80;99.90
59923;DHT22;45778;51.142;3.732;2023-01-24T16:49:01;3.60;99.90
59923;DHT22;45778;51.142;3.732;2023-01-24T16:51:26;3.80;99.90
59923;DHT22;45778;51.142;3.732;2023-01-24T16:53:56;3.90;99.90
59923;DHT22;45778;51.142;3.732;2023-01-24T16:56:23;3.90;99.90
59923;DHT22;45778;51.142;3.732;2023-01-24T16:58:53;3.80;99.90
59923;DHT22;45778;51.142;3.732;2023-01-24T17:01:19;3.90;99.90
59923;DHT22;45778;51.142;3.732;2023-01-24T17:03:45;3.90;99.90
59923;DHT22;45778;51.142;3.732;2023-01-24T17:06:14;3.80;99.90
59923;DHT22;45778;51.142;3.732;2023-01-24T17:08:40;3.60;99.90
59923;DHT22;45778;51.142;3.732;2023-01-24T17:11:08;3.60;99.90
59923;DHT22;45778;51.142;3.732;2023-01-24T17:13:35;3.50;99.90
59923;DHT22;45778;51.142;3.732;2023-01-24T17:16:08;3.50;99.90
59923;DHT22;45778;51.142;3.732;2023-01-24T17:18:35;3.50;99.90
59923;DHT22;45778;51.142;3.732;2023-01-24T17:21:07;3.60;99.90
59923;DHT22;45778;51.142;3.732;2023-01-24T17:23:34;3.80;99.90
59923;DHT22;45778;51.142;3.732;2023-01-24T17:26:07;3.70;99.90
59923;DHT22;45778;51.142;3.732;2023-01-24T17:28:33;3.70;99.90
59923;DHT22;45778;51.142;3.732;2023-01-24T17:31:16;3.50;99.90
59923;DHT22;45778;51.142;3.732;2023-01-24T17:33:42;3.50;99.90
59923;DHT22;45778;51.142;3.732;2023-01-24T17:36:10;3.30;99.90
59923;DHT22;45778;51.142;3.732;2023-01-24T17:38:37;3.30;99.90
59923;DHT22;45778;51.142;3.732;2023-01-24T17:41:04;3.30;99.90
59923;DHT22;45778;51.142;3.732;2023-01-24T17:43:30;3.40;99.90
59923;DHT22;45778;51.142;3.732;2023-01-24T17:45:57;3.40;99.90
59923;DHT22;45778;51.142;3.732;2023-01-24T17:48:24;3.60;99.90
59923;DHT22;45778;51.142;3.732;2023-01-24T17:50:50;3.40;99.90
59923;DHT22;45778;51.142;3.732;2023-01-24T17:53:16;3.40;99.90
59923;DHT22;45778;51.142;3.732;2023-01-24T17:55:42;3.40;99.90
59923;DHT22;45778;51.142;3.732;2023-01-24T17:58:08;3.50;99.90
59923;DHT22;45778;51.142;3.732;2023-01-24T18:00:34;3.40;99.90
59923;DHT22;45778;51.142;3.732;2023-01-24T18:03:00;3.50;99.90
59923;DHT22;45778;51.142;3.732;2023-01-24T18:05:26;3.60;99.90
59923;DHT22;45778;51.142;3.732;2023-01-24T18:07:52;3.80;99.90
59923;DHT22;45778;51.142;3.732;2023-01-24T18:10:17;3.50;99.90
59923;DHT22;45778;51.142;3.732;2023-01-24T18:12:43;3.50;99.90